• Join FlightAware (Why Join?)
  • Login
  • US Flag 
12:11PM EST


 

Airport Tracker/Info


-or-


 

Live Flight TrackerFlight Track Log ✈ LOF3416 ✈ 08-09-2013 ✈ KORD - KSGF

Flight Track Log - Related Links

Times and Time Zones

All times are in EDT time to prevent confusion due to time zone crossing. See the LOF3416 flight status page for this flight to view local times or setup timezone preferences in your user account.

Time Position Orientation Groundspeed Altitude Reporting Facility
EDT Latitude Longitude Course Direction KTS MPH feet Rate Location/Type
09:34PM 41.9667 -87.8500 143° Southeast 166 191 3,300  Level Chicago TRACON
09:35PM 41.9167 -87.8000 143° Southeast 223 257 4,700 840 Climbing Chicago TRACON
09:36PM 41.8500 -87.7667 160° South 266 306 5,000 60 Climbing Chicago TRACON
09:37PM 41.7900 -87.7656 179° South 257 296 4,900 900 Descending Chicago Center
09:38PM 41.7306 -87.8161 212° Southwest 263 303 6,900 2,040 Climbing Chicago Center
09:39PM 41.6719 -87.8814 220° Southwest 273 314 9,100 2,280 Climbing Chicago Center
09:40PM 41.5989 -87.9628 220° Southwest 285 328 11,600 2,040 Climbing Chicago Center
09:41PM 41.5350 -88.0328 219° Southwest 295 339 13,400 1,380 Climbing Chicago Center
09:42PM 41.4500 -88.0833 204° Southwest 333 383 14,500 1,260 Climbing Chicago Center
09:43PM 41.3453 -88.1372 201° Southwest 360 414 16,000 1,380 Climbing Chicago Center
09:44PM 41.2506 -88.1867 201° Southwest 368 423 17,400 1,380 Climbing Chicago Center
09:45PM 41.1553 -88.2367 202° Southwest 372 428 18,900 1,740 Climbing Chicago Center
09:46PM 41.0597 -88.2861 201° Southwest 372 428 21,000 1,740 Climbing Chicago Center
09:47PM 40.9653 -88.3342 201° Southwest 366 421 22,500 1,500 Climbing Chicago Center
09:48PM 40.8714 -88.3825 201° Southwest 366 421 24,100 1,500 Climbing Chicago Center
09:49PM 40.7728 -88.4742 215° Southwest 365 420 25,600 1,260 Climbing Chicago Center
09:50PM 40.6922 -88.5622 220° Southwest 374 430 26,700 960 Climbing Chicago Center
09:51PM 40.6083 -88.6533 220° Southwest 390 449 27,600 600 Climbing Chicago Center
09:52PM 40.5225 -88.7464 220° Southwest 400 460 28,000 180 Climbing Chicago Center
09:53PM 40.4322 -88.8442 220° Southwest 422 486 28,000  Level Chicago Center
09:54PM 40.3331 -88.9497 219° Southwest 444 511 28,000  Level Chicago Center
09:55PM 40.2322 -89.0564 219° Southwest 457 526 28,000  Level Chicago Center
09:57PM 40.1331 -89.1622 219° Southwest 459 528 28,000  Level Chicago Center
09:57PM 40.0514 -89.2508 220° Southwest 466 536 28,000  Level Kansas City Center
09:58PM 39.9306 -89.3778 219° Southwest 463 533 28,000  Level Kansas City Center
09:59PM 39.8303 -89.4833 219° Southwest 463 533 28,000  Level Kansas City Center
10:00PM 39.7303 -89.5897 219° Southwest 462 532 28,000  Level Kansas City Center
10:01PM 39.6267 -89.6961 218° Southwest 462 532 28,000  Level Kansas City Center
10:02PM 39.5264 -89.8003 219° Southwest 463 533 28,000  Level Kansas City Center
10:03PM 39.4267 -89.9053 219° Southwest 462 532 28,000  Level Kansas City Center
10:05PM 39.3253 -90.0089 218° Southwest 465 535 28,000  Level Kansas City Center
10:06PM 39.2258 -90.1117 219° Southwest 462 532 28,000  Level Kansas City Center
10:07PM 39.1250 -90.2147 218° Southwest 463 533 28,000  Level Kansas City Center
10:08PM 39.0236 -90.3186 219° Southwest 465 535 28,000  Level Kansas City Center
10:09PM 38.9036 -90.4417 219° Southwest 465 535 28,000  Level Kansas City Center
10:10PM 38.8122 -90.5575 225° Southwest 463 533 28,000  Level Kansas City Center
10:11PM 38.7508 -90.7028 242° Southwest 476 548 28,000  Level Kansas City Center
10:12PM 38.6811 -90.8364 236° Southwest 465 535 28,000  Level Kansas City Center
10:13PM 38.6114 -90.9744 237° Southwest 465 535 28,000  Level Kansas City Center
10:14PM 38.5414 -91.1117 237° Southwest 464 534 28,000  Level Kansas City Center
10:15PM 38.4692 -91.2514 237° Southwest 471 542 28,000  Level Kansas City Center
10:16PM 38.3931 -91.3981 237° Southwest 466 536 28,000  Level Kansas City Center
10:17PM 38.3208 -91.5350 236° Southwest 465 535 28,000  Level Kansas City Center
10:18PM 38.2347 -91.6972 236° Southwest 462 532 28,000  Level Kansas City Center
10:19PM 38.1642 -91.8339 237° Southwest 462 532 28,000  Level Kansas City Center
10:20PM 38.0908 -91.9719 236° Southwest 466 536 28,000  Level Kansas City Center
10:21PM 38.0267 -92.0947 236° Southwest 464 534 28,000 -240 Level Kansas City Center
10:22PM 37.9556 -92.2267 236° Southwest 459 528 27,600 -960 Descending Kansas City Center
10:23PM 37.8794 -92.3619 235° Southwest 469 540 26,100 -1,620 Descending Kansas City Center
10:24PM 37.8111 -92.4981 238° Southwest 464 534 24,400 -2,220 Descending Kansas City Center
10:25PM 37.7331 -92.6508 237° Southwest 446 513 21,600 -2,580 Descending Kansas City Center
10:26PM 37.6681 -92.7678 235° Southwest 423 487 19,200 -2,460 Descending Kansas City Center
10:27PM 37.6106 -92.8819 238° Southwest 393 452 16,600 -2,700 Descending Kansas City Center
10:28PM 37.5547 -92.9919 237° Southwest 379 436 13,700 -2,700 Descending Kansas City Center
10:29PM 37.5003 -93.1022 238° Southwest 374 430 11,100 -1,920 Descending Kansas City Center
10:30PM 37.4533 -93.1961 238° Southwest 319 367 9,800 -1,860 Descending Kansas City Center
10:31PM 37.4100 -93.2806 237° Southwest 291 335 7,400 -1,980 Descending Kansas City Center
10:32PM 37.3717 -93.3525 236° Southwest 267 307 5,800 -1,680 Descending Kansas City Center
10:33PM 37.3400 -93.4158 238° Southwest 233 268 4,000 -1,320 Descending Kansas City Center
10:34PM 37.3103 -93.4642 232° Southwest 197 227 3,200 -1,080 Descending Kansas City Center
10:35PM 37.2797 -93.4233 133° Southeast 161 185 1,900 -960 Descending Kansas City Center
10:36PM 37.2572 -93.4031 144° Southeast 145 167 1,300 -600 Descending Kansas City Center
10:38PM 37.2457 -93.3886 141° Southeast  Level Estimated
10:45PM 37.2457 -93.3886 141° Southeast  Level Estimated
10:46PM 37.2457 -93.3886 141° Southeast  Level Estimated